Miao-li, Taiwan
Current Conditions -  °F | °C
As of 2:00 PM on Sunday 26 Oct 2014 (Local Time) from RCMQ Reporting Station
Broken Clouds Broken Clouds  
Wind Chill: 81°   Ceiling: 18000
Heat Index: 85°   Visibility: 6mi
Dew Point: 72°   Wind: 15mph
Humidity: 74%   Direction: 350°N
Pressure: 29.97"   Gusts: NA
Location:  24.57°N, 120.82°E
Report Text: RCMQ 260600Z 35013KT 9999 FEW012 SCT020 BKN180 27/22 Q1015 NOSIG RMK A3000
Loading
Personal Weather Stations






























Interactive Weather Map
Tropical Storm Tracking
New forecast layout! Learn more

10-Day Weather Forecast

Advertisements
Track Severe Weather on mobile